createdAt,value
2023-10-05T00:02:05.636Z,14.40
2023-10-05T00:04:42.906Z,15.00
2023-10-05T00:07:13.330Z,14.90
2023-10-05T00:09:41.831Z,14.40
2023-10-05T00:12:19.591Z,15.00
2023-10-05T00:14:49.816Z,15.20
2023-10-05T00:17:21.210Z,15.00
2023-10-05T00:19:50.414Z,14.90
2023-10-05T00:22:19.496Z,14.90
2023-10-05T00:24:49.421Z,14.30
2023-10-05T00:27:21.253Z,14.70
2023-10-05T00:29:57.868Z,15.10
2023-10-05T00:32:35.445Z,15.10
2023-10-05T00:35:17.537Z,15.00
2023-10-05T00:37:47.777Z,15.00
2023-10-05T00:40:25.148Z,14.70
2023-10-05T00:42:56.538Z,14.40
2023-10-05T00:45:32.282Z,14.80
2023-10-05T00:48:10.322Z,14.60
2023-10-05T00:50:41.181Z,14.70
2023-10-05T00:53:11.582Z,14.80
2023-10-05T00:55:40.722Z,15.00
2023-10-05T00:58:14.201Z,15.20
2023-10-05T01:00:52.059Z,15.10
2023-10-05T01:03:28.640Z,14.60
2023-10-05T01:06:12.596Z,14.70
2023-10-05T01:08:51.113Z,14.80
2023-10-05T01:11:27.034Z,14.70
2023-10-05T01:14:01.735Z,15.10
2023-10-05T01:16:33.819Z,14.90
2023-10-05T01:19:03.737Z,14.90
2023-10-05T01:21:31.940Z,14.80
2023-10-05T01:24:01.465Z,14.70
2023-10-05T01:26:29.596Z,14.80
2023-10-05T01:28:57.692Z,14.50
2023-10-05T01:31:25.947Z,14.30
2023-10-05T01:33:54.306Z,14.40
2023-10-05T01:36:23.999Z,14.70
2023-10-05T01:38:55.774Z,14.50
2023-10-05T01:41:28.951Z,14.20
2023-10-05T01:43:58.980Z,14.30
2023-10-05T01:46:27.355Z,14.20
2023-10-05T01:48:57.613Z,14.60
2023-10-05T01:51:27.993Z,14.80
2023-10-05T01:54:03.364Z,14.70
2023-10-05T01:56:33.930Z,14.80
2023-10-05T01:59:07.784Z,14.80
2023-10-05T02:01:41.249Z,14.50
2023-10-05T02:04:12.798Z,14.80
2023-10-05T02:06:43.907Z,14.30
2023-10-05T02:09:12.544Z,14.70
2023-10-05T02:11:42.629Z,14.80
2023-10-05T02:14:13.928Z,14.90
2023-10-05T02:16:43.964Z,14.80
2023-10-05T02:19:12.336Z,15.00
2023-10-05T02:21:40.561Z,14.70
2023-10-05T02:24:17.704Z,14.90
2023-10-05T02:27:10.709Z,15.00
2023-10-05T02:29:41.631Z,15.10
2023-10-05T02:32:12.790Z,15.10
2023-10-05T02:34:42.898Z,14.80
2023-10-05T02:37:13.050Z,15.00
2023-10-05T02:39:41.900Z,14.80
2023-10-05T02:42:14.612Z,14.90
2023-10-05T02:44:44.200Z,15.20
2023-10-05T02:47:14.432Z,15.20
2023-10-05T02:49:45.865Z,14.70
2023-10-05T02:52:15.243Z,14.90
2023-10-05T02:54:43.434Z,15.00
2023-10-05T02:57:15.543Z,15.00
2023-10-05T02:59:43.748Z,15.20
2023-10-05T03:02:16.098Z,15.10
2023-10-05T03:04:48.051Z,14.90
2023-10-05T03:07:17.098Z,14.90
2023-10-05T03:09:45.294Z,15.00
2023-10-05T03:12:14.891Z,15.00
2023-10-05T03:14:44.470Z,14.90
2023-10-05T03:17:14.745Z,14.90
2023-10-05T03:19:42.925Z,15.10
2023-10-05T03:22:13.805Z,15.10
2023-10-05T03:24:43.896Z,15.00
2023-10-05T03:27:11.984Z,14.90
2023-10-05T03:29:46.668Z,14.80
2023-10-05T03:32:16.013Z,14.50
2023-10-05T03:34:47.622Z,14.90
2023-10-05T03:37:16.660Z,14.80
2023-10-05T03:39:53.059Z,14.70
2023-10-05T03:42:23.484Z,14.50
2023-10-05T03:45:01.909Z,14.70
2023-10-05T03:47:30.723Z,14.70
2023-10-05T03:49:58.912Z,14.60
2023-10-05T03:52:31.536Z,14.80
2023-10-05T03:55:05.344Z,15.00
2023-10-05T03:57:33.500Z,15.00
2023-10-05T04:00:17.270Z,14.90
2023-10-05T04:02:45.489Z,14.80
2023-10-05T04:05:13.844Z,14.60
2023-10-05T04:07:44.647Z,14.80
2023-10-05T04:10:16.891Z,14.90
2023-10-05T04:12:45.079Z,15.00
2023-10-05T04:15:14.851Z,14.40
2023-10-05T04:17:45.828Z,14.50
2023-10-05T04:20:18.773Z,14.70
2023-10-05T04:22:49.096Z,14.30
2023-10-05T04:25:18.308Z,14.80
2023-10-05T04:27:48.843Z,14.80
2023-10-05T04:30:19.927Z,14.50
2023-10-05T04:32:48.068Z,14.60
2023-10-05T04:35:23.176Z,14.80
2023-10-05T04:37:52.513Z,14.80
2023-10-05T04:40:24.347Z,14.70
2023-10-05T04:42:52.792Z,14.50
2023-10-05T04:45:24.493Z,14.60
2023-10-05T04:47:59.782Z,14.70
2023-10-05T04:50:28.708Z,14.50
2023-10-05T04:52:59.563Z,14.50
2023-10-05T04:55:34.075Z,14.20
2023-10-05T05:01:30.021Z,14.30
2023-10-05T05:03:58.160Z,14.20
2023-10-05T05:06:28.609Z,14.50
2023-10-05T05:08:56.911Z,14.40
2023-10-05T05:11:26.943Z,14.60
2023-10-05T05:13:56.085Z,14.70
2023-10-05T05:16:26.027Z,14.70
2023-10-05T05:18:56.965Z,14.80
2023-10-05T05:21:25.419Z,14.30
2023-10-05T05:23:53.685Z,14.20
2023-10-05T05:26:24.168Z,14.30
2023-10-05T05:28:53.967Z,14.60
2023-10-05T05:31:23.001Z,14.60
2023-10-05T05:33:53.390Z,14.50
2023-10-05T05:36:22.873Z,14.40
2023-10-05T05:38:51.859Z,14.60
2023-10-05T05:41:20.909Z,14.60
2023-10-05T05:43:49.383Z,14.50
2023-10-05T05:46:21.757Z,14.50
2023-10-05T05:48:59.584Z,14.50
2023-10-05T05:51:29.637Z,14.70
2023-10-05T05:53:57.721Z,14.50
2023-10-05T05:56:30.158Z,14.70
2023-10-05T05:58:58.811Z,14.50
2023-10-05T06:01:27.465Z,14.50
2023-10-05T06:03:55.860Z,14.60
2023-10-05T06:06:24.130Z,14.60
2023-10-05T06:08:53.929Z,15.00
2023-10-05T06:11:22.200Z,15.00
2023-10-05T06:13:50.534Z,14.70
2023-10-05T06:16:19.237Z,14.60
2023-10-05T06:18:47.634Z,14.90
2023-10-05T06:21:15.828Z,14.70
2023-10-05T06:23:44.064Z,14.80
2023-10-05T06:26:13.954Z,14.80
2023-10-05T06:28:42.113Z,14.70
2023-10-05T06:31:13.608Z,14.50
2023-10-05T06:33:43.894Z,14.70
2023-10-05T06:36:12.108Z,14.90
2023-10-05T06:38:40.435Z,14.70
2023-10-05T06:41:08.582Z,15.00
2023-10-05T06:43:40.146Z,15.50
2023-10-05T06:46:15.950Z,15.40
2023-10-05T06:48:44.239Z,15.20
2023-10-05T06:51:14.482Z,15.40
2023-10-05T06:53:42.781Z,15.30
2023-10-05T06:56:12.403Z,15.30
2023-10-05T06:58:43.075Z,15.50
2023-10-05T07:01:11.381Z,15.60
2023-10-05T07:03:40.302Z,15.70
2023-10-05T07:06:08.558Z,15.70
2023-10-05T07:08:36.679Z,16.00
2023-10-05T07:11:08.083Z,16.00
2023-10-05T07:13:36.481Z,16.20
2023-10-05T07:16:07.033Z,16.40
2023-10-05T07:18:35.329Z,16.60
2023-10-05T07:21:05.723Z,16.50
2023-10-05T07:23:34.327Z,16.40
2023-10-05T07:26:02.455Z,16.70
2023-10-05T07:28:30.647Z,16.50
2023-10-05T07:31:00.788Z,16.50
2023-10-05T07:33:30.503Z,16.50
2023-10-05T07:35:58.965Z,16.50
2023-10-05T07:38:28.576Z,16.30
2023-10-05T07:40:56.970Z,16.40
2023-10-05T07:43:28.717Z,16.70
2023-10-05T07:45:57.149Z,16.70
2023-10-05T07:48:25.432Z,17.10
2023-10-05T07:50:55.030Z,17.10
2023-10-05T07:53:23.728Z,17.10
2023-10-05T07:55:51.942Z,16.90
2023-10-05T07:58:20.565Z,17.20
2023-10-05T08:00:49.035Z,17.40
2023-10-05T08:03:18.625Z,17.30
2023-10-05T08:05:47.053Z,17.20
2023-10-05T08:08:17.114Z,17.40
2023-10-05T08:10:45.572Z,17.00
2023-10-05T08:13:13.941Z,17.20
2023-10-05T08:15:44.747Z,17.20
2023-10-05T08:18:13.044Z,17.70
2023-10-05T08:20:41.332Z,18.00
2023-10-05T08:23:10.088Z,18.10
2023-10-05T08:25:39.642Z,18.50
2023-10-05T08:28:10.799Z,18.80
2023-10-05T08:30:47.096Z,18.80
2023-10-05T08:33:20.632Z,19.00
2023-10-05T08:35:49.908Z,19.30
2023-10-05T08:38:18.217Z,19.70
2023-10-05T08:40:49.991Z,19.80
2023-10-05T08:43:19.113Z,20.40
2023-10-05T08:45:53.465Z,19.20
2023-10-05T08:48:30.463Z,19.50
2023-10-05T08:51:05.996Z,19.30
2023-10-05T08:53:34.548Z,19.70
2023-10-05T08:56:04.365Z,19.80
2023-10-05T08:58:35.847Z,19.80
2023-10-05T09:01:05.388Z,20.20
2023-10-05T09:03:38.013Z,20.30
2023-10-05T09:06:17.812Z,20.30
2023-10-05T09:08:53.381Z,20.80
2023-10-05T09:11:32.555Z,20.80
2023-10-05T09:14:13.627Z,21.00
2023-10-05T09:16:47.351Z,21.20
2023-10-05T09:19:18.942Z,21.50
2023-10-05T09:21:52.069Z,21.10
2023-10-05T09:24:24.672Z,20.10
2023-10-05T09:26:55.292Z,20.40
2023-10-05T09:29:24.335Z,20.40
2023-10-05T09:31:55.886Z,20.70
2023-10-05T09:34:40.114Z,20.50
2023-10-05T09:37:11.472Z,20.50
2023-10-05T09:39:52.979Z,20.50
2023-10-05T09:42:26.699Z,20.30
2023-10-05T09:44:55.423Z,20.50
2023-10-05T09:47:26.517Z,20.30
2023-10-05T09:49:59.825Z,20.90
2023-10-05T09:52:32.897Z,21.80
2023-10-05T09:55:01.547Z,21.40
2023-10-05T09:57:31.090Z,22.00
2023-10-05T10:00:08.848Z,21.80
2023-10-05T10:02:37.617Z,22.40
2023-10-05T10:05:23.445Z,22.20
2023-10-05T10:07:51.895Z,22.30
2023-10-05T10:10:20.735Z,22.40
2023-10-05T10:12:52.599Z,21.90
2023-10-05T10:15:30.014Z,22.50
2023-10-05T10:18:15.301Z,21.80
2023-10-05T10:20:49.912Z,22.20
2023-10-05T10:23:23.563Z,22.70
2023-10-05T10:25:52.888Z,22.60
2023-10-05T10:28:36.557Z,22.70
2023-10-05T10:31:19.152Z,22.50
2023-10-05T10:33:52.326Z,23.00
2023-10-05T10:36:24.570Z,23.00
2023-10-05T10:38:53.098Z,23.00
2023-10-05T10:41:23.774Z,22.70
2023-10-05T10:43:55.237Z,23.30
2023-10-05T10:46:29.843Z,23.30
2023-10-05T10:49:02.261Z,23.70
2023-10-05T10:51:33.310Z,23.60
2023-10-05T10:54:09.609Z,22.80
2023-10-05T10:56:43.381Z,23.00
2023-10-05T10:59:16.117Z,22.80
2023-10-05T11:01:45.015Z,23.40
2023-10-05T11:04:26.934Z,23.00
2023-10-05T11:07:00.039Z,22.30
2023-10-05T11:09:36.628Z,22.30
2023-10-05T11:12:18.015Z,22.00
2023-10-05T11:14:47.530Z,22.50
2023-10-05T11:17:32.919Z,22.10
2023-10-05T11:20:16.530Z,21.40
2023-10-05T11:22:44.854Z,21.70
2023-10-05T11:25:25.069Z,22.20
2023-10-05T11:27:59.619Z,21.80
2023-10-05T11:30:54.879Z,22.00
2023-10-05T11:34:06.100Z,21.90
2023-10-05T11:36:29.723Z,22.00
2023-10-05T11:39:00.391Z,22.10
2023-10-05T11:41:30.111Z,21.50
2023-10-05T11:44:00.006Z,21.40
2023-10-05T11:49:22.849Z,21.90
2023-10-05T11:51:57.850Z,21.50
2023-10-05T11:54:26.678Z,21.30
2023-10-05T11:56:56.089Z,21.50
2023-10-05T11:59:28.807Z,21.60
2023-10-05T12:01:57.135Z,21.10
2023-10-05T12:04:28.096Z,21.30
2023-10-05T12:06:59.928Z,21.30
2023-10-05T12:09:33.550Z,21.30
2023-10-05T12:12:03.781Z,21.30
2023-10-05T12:14:32.006Z,21.90
2023-10-05T12:17:01.470Z,21.80
2023-10-05T12:19:32.022Z,21.60
2023-10-05T12:22:01.315Z,21.80
2023-10-05T12:24:29.550Z,21.50
2023-10-05T12:27:00.265Z,21.60
2023-10-05T12:29:31.168Z,21.70
2023-10-05T12:32:07.901Z,21.70
2023-10-05T12:34:37.730Z,21.30
2023-10-05T12:37:09.933Z,21.50
2023-10-05T12:39:38.250Z,21.40
2023-10-05T12:42:07.917Z,21.50
2023-10-05T12:44:37.768Z,21.30
2023-10-05T12:47:09.552Z,21.80
2023-10-05T12:49:39.427Z,21.80
2023-10-05T12:52:10.109Z,21.80
2023-10-05T12:54:41.575Z,21.70
2023-10-05T12:59:43.952Z,21.40
2023-10-05T13:02:16.731Z,21.70
2023-10-05T13:04:46.930Z,21.00
2023-10-05T13:07:18.352Z,21.30
2023-10-05T13:09:50.212Z,21.50
2023-10-05T13:12:21.631Z,20.80
2023-10-05T13:14:50.018Z,20.80
2023-10-05T13:17:18.726Z,20.50
2023-10-05T13:19:48.257Z,20.80
2023-10-05T13:22:20.380Z,21.20
2023-10-05T13:24:56.736Z,21.30
2023-10-05T13:27:25.788Z,21.00
2023-10-05T13:29:55.639Z,21.10
2023-10-05T13:32:25.219Z,20.50
2023-10-05T13:34:54.872Z,21.20
2023-10-05T13:37:23.121Z,21.10
2023-10-05T13:39:54.468Z,21.10
2023-10-05T13:42:27.683Z,20.90
2023-10-05T13:44:55.923Z,21.20
2023-10-05T13:47:30.713Z,20.80
2023-10-05T13:50:10.165Z,20.70
2023-10-05T13:52:40.211Z,21.00
2023-10-05T13:55:10.453Z,21.40
2023-10-05T13:57:39.780Z,21.30
2023-10-05T14:00:19.206Z,21.30
2023-10-05T14:02:47.770Z,21.30
2023-10-05T14:05:17.443Z,21.00
2023-10-05T14:07:46.098Z,21.00
2023-10-05T14:10:14.378Z,21.20
2023-10-05T14:12:43.604Z,21.40
2023-10-05T14:15:13.348Z,21.20
2023-10-05T14:17:41.589Z,21.40
2023-10-05T14:20:12.886Z,20.80
2023-10-05T14:22:43.722Z,20.70
2023-10-05T14:25:18.975Z,20.80
2023-10-05T14:27:49.412Z,20.70
2023-10-05T14:30:21.220Z,20.70
2023-10-05T14:32:51.633Z,20.20
2023-10-05T14:35:20.547Z,20.80
2023-10-05T14:37:53.705Z,21.00
2023-10-05T14:40:24.032Z,21.30
2023-10-05T14:42:54.104Z,21.20
2023-10-05T14:45:23.995Z,21.40
2023-10-05T14:47:52.988Z,21.50
2023-10-05T14:50:21.276Z,21.10
2023-10-05T14:52:52.198Z,21.20
2023-10-05T14:55:21.571Z,21.30
2023-10-05T14:57:49.872Z,21.00
2023-10-05T15:00:18.642Z,21.30
2023-10-05T15:02:46.947Z,21.40
2023-10-05T15:05:15.272Z,21.40
2023-10-05T15:07:44.470Z,21.30
2023-10-05T15:10:18.567Z,21.50
2023-10-05T15:12:47.228Z,21.80
2023-10-05T15:15:16.949Z,21.70
2023-10-05T15:17:46.137Z,21.80
2023-10-05T15:20:15.558Z,21.90
2023-10-05T15:22:45.044Z,21.90
2023-10-05T15:25:15.237Z,21.90
2023-10-05T15:27:43.805Z,21.50
2023-10-05T15:30:13.810Z,21.70
2023-10-05T15:32:42.109Z,21.80
2023-10-05T15:35:11.798Z,21.70
2023-10-05T15:37:42.230Z,21.80
2023-10-05T15:40:15.724Z,21.60
2023-10-05T15:42:45.963Z,21.10
2023-10-05T15:45:14.844Z,21.60
2023-10-05T15:47:44.601Z,21.70
2023-10-05T15:50:15.184Z,21.60
2023-10-05T15:52:44.737Z,21.80
2023-10-05T15:55:13.313Z,21.90
2023-10-05T15:57:42.253Z,21.80
2023-10-05T16:00:18.961Z,21.40
2023-10-05T16:02:51.986Z,21.50
2023-10-05T16:05:20.511Z,21.50
2023-10-05T16:07:49.316Z,21.30
2023-10-05T16:10:18.133Z,21.30
2023-10-05T16:12:46.414Z,21.30
2023-10-05T16:15:16.171Z,21.30
2023-10-05T16:17:46.335Z,21.40
2023-10-05T16:20:17.591Z,21.10
2023-10-05T16:22:46.158Z,21.00
2023-10-05T16:25:16.504Z,21.10
2023-10-05T16:27:46.575Z,21.30
2023-10-05T16:30:17.063Z,21.50
2023-10-05T16:32:45.553Z,21.30
2023-10-05T16:35:13.701Z,21.00
2023-10-05T16:37:43.681Z,20.50
2023-10-05T16:40:13.093Z,20.30
2023-10-05T16:42:41.483Z,20.60
2023-10-05T16:45:12.377Z,20.40
2023-10-05T16:47:42.625Z,20.20
2023-10-05T16:50:11.871Z,19.90
2023-10-05T16:52:40.244Z,20.20
2023-10-05T16:55:10.623Z,20.10
2023-10-05T16:57:39.979Z,20.20
2023-10-05T17:00:17.112Z,20.10
2023-10-05T17:02:46.703Z,20.20
2023-10-05T17:05:18.011Z,20.00
2023-10-05T17:07:46.746Z,19.50
2023-10-05T17:10:15.157Z,19.70
2023-10-05T17:12:43.822Z,19.80
2023-10-05T17:15:12.156Z,19.70
2023-10-05T17:17:40.374Z,19.40
2023-10-05T17:20:11.258Z,19.30
2023-10-05T17:22:40.634Z,19.30
2023-10-05T17:25:09.789Z,18.70
2023-10-05T17:27:38.311Z,18.80
2023-10-05T17:30:07.467Z,19.00
2023-10-05T17:32:35.777Z,19.20
2023-10-05T17:35:04.194Z,18.90
2023-10-05T17:37:35.180Z,18.80
2023-10-05T17:40:05.959Z,18.80
2023-10-05T17:42:34.967Z,18.60
2023-10-05T17:45:03.164Z,18.50
2023-10-05T17:47:31.391Z,18.40
2023-10-05T17:50:00.886Z,18.30
2023-10-05T17:52:29.269Z,18.30
2023-10-05T17:54:58.897Z,18.10
2023-10-05T17:57:27.036Z,18.10
2023-10-05T17:59:55.206Z,18.20
2023-10-05T18:02:23.662Z,17.90
2023-10-05T18:04:51.969Z,17.70
2023-10-05T18:07:20.103Z,17.70
2023-10-05T18:09:49.017Z,17.70
2023-10-05T18:12:19.987Z,17.70
2023-10-05T18:14:49.996Z,17.80
2023-10-05T18:17:21.674Z,17.70
2023-10-05T18:19:53.538Z,17.70
2023-10-05T18:22:22.886Z,17.70
2023-10-05T18:24:51.997Z,17.50
2023-10-05T18:27:21.764Z,17.40
2023-10-05T18:29:52.139Z,17.50
2023-10-05T18:32:20.713Z,17.70
2023-10-05T18:34:48.932Z,17.50
2023-10-05T18:37:17.036Z,17.40
2023-10-05T18:39:45.136Z,17.30
2023-10-05T18:42:15.576Z,17.10
2023-10-05T18:44:47.816Z,17.00
2023-10-05T18:47:15.972Z,17.10
2023-10-05T18:49:44.105Z,17.20
2023-10-05T18:52:14.115Z,16.80
2023-10-05T18:54:43.690Z,16.60
2023-10-05T18:57:13.539Z,16.40
2023-10-05T18:59:41.710Z,16.30
2023-10-05T19:02:11.225Z,16.50
2023-10-05T19:04:39.833Z,16.60
2023-10-05T19:07:08.032Z,16.70
2023-10-05T19:09:38.251Z,16.80
2023-10-05T19:12:08.061Z,16.30
2023-10-05T19:14:36.180Z,15.80
2023-10-05T19:17:05.413Z,15.80
2023-10-05T19:19:35.069Z,15.80
2023-10-05T19:22:03.200Z,16.00
2023-10-05T19:24:32.094Z,16.00
2023-10-05T19:27:00.225Z,16.00
2023-10-05T19:29:28.353Z,16.10
2023-10-05T19:31:56.542Z,16.20
2023-10-05T19:34:24.797Z,15.90
2023-10-05T19:36:54.506Z,15.80
2023-10-05T19:39:22.664Z,15.90
2023-10-05T19:41:50.735Z,15.80
2023-10-05T19:44:20.557Z,15.80
2023-10-05T19:46:49.420Z,15.70
2023-10-05T19:49:17.792Z,15.70
2023-10-05T19:51:46.428Z,15.80
2023-10-05T19:54:20.113Z,15.70
2023-10-05T19:56:51.789Z,15.50
2023-10-05T19:59:21.158Z,15.50
2023-10-05T20:01:50.642Z,15.60
2023-10-05T20:04:19.292Z,15.50
2023-10-05T20:06:47.433Z,15.50
2023-10-05T20:09:17.453Z,15.70
2023-10-05T20:11:47.894Z,15.50
2023-10-05T20:14:15.940Z,15.50
2023-10-05T20:16:44.163Z,15.00
2023-10-05T20:19:13.251Z,14.90
2023-10-05T20:21:42.099Z,14.90
2023-10-05T20:24:11.097Z,15.00
2023-10-05T20:26:40.573Z,14.80
2023-10-05T20:29:08.860Z,14.70
2023-10-05T20:31:38.207Z,14.70
2023-10-05T20:34:08.386Z,15.10
2023-10-05T20:36:39.650Z,15.00
2023-10-05T20:39:09.691Z,15.10
2023-10-05T20:41:37.853Z,15.20
2023-10-05T20:44:08.410Z,15.40
2023-10-05T20:46:36.704Z,15.30
2023-10-05T20:49:06.480Z,15.00
2023-10-05T20:51:36.145Z,15.00
2023-10-05T20:54:04.610Z,15.10
2023-10-05T20:56:33.483Z,14.50
2023-10-05T20:59:02.091Z,14.80
2023-10-05T21:01:31.637Z,15.20
2023-10-05T21:03:59.751Z,15.30
2023-10-05T21:06:27.877Z,15.20
2023-10-05T21:08:56.009Z,15.00
2023-10-05T21:11:26.047Z,15.30
2023-10-05T21:13:54.917Z,15.40
2023-10-05T21:16:23.850Z,15.40
2023-10-05T21:18:56.325Z,15.30
2023-10-05T21:21:26.164Z,15.10
2023-10-05T21:23:54.421Z,15.20
2023-10-05T21:26:22.715Z,15.10
2023-10-05T21:28:53.640Z,15.30
2023-10-05T21:31:22.356Z,15.20
2023-10-05T21:33:50.942Z,14.50
2023-10-05T21:36:20.728Z,14.70
2023-10-05T21:38:48.839Z,14.70
2023-10-05T21:41:17.704Z,14.70
2023-10-05T21:43:46.948Z,15.20
2023-10-05T21:46:15.081Z,15.30
2023-10-05T21:48:43.184Z,15.20
2023-10-05T21:51:11.329Z,15.50
2023-10-05T21:53:42.399Z,15.40
2023-10-05T21:56:11.142Z,14.80
2023-10-05T21:58:39.256Z,14.90
2023-10-05T22:01:07.361Z,15.00
2023-10-05T22:03:35.587Z,14.80
2023-10-05T22:06:05.631Z,14.90
2023-10-05T22:08:33.857Z,15.20
2023-10-05T22:11:04.821Z,15.40
2023-10-05T22:13:33.734Z,15.50
2023-10-05T22:16:01.858Z,15.10
2023-10-05T22:18:30.645Z,14.90
2023-10-05T22:20:59.487Z,14.70
2023-10-05T22:23:27.595Z,14.70
2023-10-05T22:25:56.349Z,14.50
2023-10-05T22:28:25.966Z,14.40
2023-10-05T22:30:54.125Z,14.70
2023-10-05T22:33:22.246Z,14.80
2023-10-05T22:35:51.236Z,15.10
2023-10-05T22:38:26.578Z,15.30
2023-10-05T22:41:01.724Z,15.20
2023-10-05T22:43:31.534Z,15.00
2023-10-05T22:45:59.684Z,14.90
2023-10-05T22:48:27.803Z,15.00
2023-10-05T22:50:55.933Z,14.90
2023-10-05T22:53:24.017Z,15.10
2023-10-05T22:55:52.497Z,14.80
2023-10-05T22:58:20.582Z,14.70
2023-10-05T23:00:50.095Z,14.30
2023-10-05T23:03:36.421Z,14.30
2023-10-05T23:06:04.794Z,14.80
2023-10-05T23:08:32.861Z,14.90
2023-10-05T23:11:01.388Z,14.70
2023-10-05T23:13:29.941Z,14.80
2023-10-05T23:15:59.512Z,14.50
2023-10-05T23:18:28.029Z,14.50
2023-10-05T23:20:57.628Z,14.60
2023-10-05T23:23:26.557Z,14.30
2023-10-05T23:25:54.699Z,14.50
2023-10-05T23:28:22.824Z,14.60
2023-10-05T23:30:51.945Z,14.40
2023-10-05T23:33:27.034Z,14.50
2023-10-05T23:36:01.025Z,14.50
2023-10-05T23:38:34.876Z,14.10
2023-10-05T23:41:03.177Z,14.10
2023-10-05T23:43:31.343Z,14.60
2023-10-05T23:45:59.441Z,14.60
2023-10-05T23:48:28.943Z,14.20
2023-10-05T23:50:57.021Z,14.40
2023-10-05T23:53:25.754Z,14.20
2023-10-05T23:55:59.467Z,14.20
2023-10-05T23:58:29.069Z,14.00
